sensor_id;sensor_type;location;lat;lon;timestamp;temperature;humidity
1367;DHT22;16877;48.810;9.282;2023-01-10T00:01:30;14.80;54.90
1367;DHT22;16877;48.810;9.282;2023-01-10T00:03:57;14.80;54.70
1367;DHT22;16877;48.810;9.282;2023-01-10T00:06:25;14.70;54.70
1367;DHT22;16877;48.810;9.282;2023-01-10T00:08:54;14.70;55.00
1367;DHT22;16877;48.810;9.282;2023-01-10T00:11:22;14.70;55.00
1367;DHT22;16877;48.810;9.282;2023-01-10T00:14:07;14.70;55.00
1367;DHT22;16877;48.810;9.282;2023-01-10T00:16:38;14.60;54.90
1367;DHT22;16877;48.810;9.282;2023-01-10T00:19:07;14.60;55.00
1367;DHT22;16877;48.810;9.282;2023-01-10T00:21:35;14.60;55.00
1367;DHT22;16877;48.810;9.282;2023-01-10T00:24:07;14.60;55.10
1367;DHT22;16877;48.810;9.282;2023-01-10T00:26:42;14.60;55.10
1367;DHT22;16877;48.810;9.282;2023-01-10T00:29:16;14.60;55.00
1367;DHT22;16877;48.810;9.282;2023-01-10T00:31:43;14.50;55.60
1367;DHT22;16877;48.810;9.282;2023-01-10T00:34:11;14.50;55.00
1367;DHT22;16877;48.810;9.282;2023-01-10T00:36:39;14.50;55.00
1367;DHT22;16877;48.810;9.282;2023-01-10T00:39:08;14.50;55.00
1367;DHT22;16877;48.810;9.282;2023-01-10T00:41:39;14.50;55.10
1367;DHT22;16877;48.810;9.282;2023-01-10T00:44:24;14.50;55.10
1367;DHT22;16877;48.810;9.282;2023-01-10T00:46:52;14.50;55.30
1367;DHT22;16877;48.810;9.282;2023-01-10T00:49:20;14.50;55.50
1367;DHT22;16877;48.810;9.282;2023-01-10T00:51:47;14.50;55.40
1367;DHT22;16877;48.810;9.282;2023-01-10T00:54:16;14.50;55.40
1367;DHT22;16877;48.810;9.282;2023-01-10T00:56:43;14.50;55.50
1367;DHT22;16877;48.810;9.282;2023-01-10T00:59:11;14.50;55.50
1367;DHT22;16877;48.810;9.282;2023-01-10T01:01:39;14.60;55.50
1367;DHT22;16877;48.810;9.282;2023-01-10T01:04:06;14.50;55.50
1367;DHT22;16877;48.810;9.282;2023-01-10T01:06:34;14.50;55.40
1367;DHT22;16877;48.810;9.282;2023-01-10T01:09:02;14.50;55.50
1367;DHT22;16877;48.810;9.282;2023-01-10T01:11:31;14.50;55.50
1367;DHT22;16877;48.810;9.282;2023-01-10T01:14:00;14.50;55.60
1367;DHT22;16877;48.810;9.282;2023-01-10T01:16:42;14.50;55.70
1367;DHT22;16877;48.810;9.282;2023-01-10T01:19:26;14.60;55.70
1367;DHT22;16877;48.810;9.282;2023-01-10T01:21:54;14.50;55.60
1367;DHT22;16877;48.810;9.282;2023-01-10T01:24:21;14.60;55.70
1367;DHT22;16877;48.810;9.282;2023-01-10T01:26:51;14.60;55.70
1367;DHT22;16877;48.810;9.282;2023-01-10T01:29:18;14.60;55.80
1367;DHT22;16877;48.810;9.282;2023-01-10T01:31:46;14.60;55.90
1367;DHT22;16877;48.810;9.282;2023-01-10T01:34:13;14.60;55.90
1367;DHT22;16877;48.810;9.282;2023-01-10T01:36:40;14.60;56.00
1367;DHT22;16877;48.810;9.282;2023-01-10T01:39:08;14.60;56.00
1367;DHT22;16877;48.810;9.282;2023-01-10T01:41:35;14.60;55.90
1367;DHT22;16877;48.810;9.282;2023-01-10T01:44:36;14.60;55.60
1367;DHT22;16877;48.810;9.282;2023-01-10T01:47:07;14.50;55.70
1367;DHT22;16877;48.810;9.282;2023-01-10T01:49:39;14.50;55.60
1367;DHT22;16877;48.810;9.282;2023-01-10T01:52:09;14.50;55.50
1367;DHT22;16877;48.810;9.282;2023-01-10T01:54:38;14.40;55.20
1367;DHT22;16877;48.810;9.282;2023-01-10T01:57:08;14.40;55.20
1367;DHT22;16877;48.810;9.282;2023-01-10T01:59:41;14.40;55.00
1367;DHT22;16877;48.810;9.282;2023-01-10T02:02:13;14.40;55.30
1367;DHT22;16877;48.810;9.282;2023-01-10T02:04:44;14.40;55.60
1367;DHT22;16877;48.810;9.282;2023-01-10T02:07:14;14.40;55.50
1367;DHT22;16877;48.810;9.282;2023-01-10T02:09:58;14.40;55.20
1367;DHT22;16877;48.810;9.282;2023-01-10T02:12:29;14.40;55.20
1367;DHT22;16877;48.810;9.282;2023-01-10T02:14:59;14.30;55.10
1367;DHT22;16877;48.810;9.282;2023-01-10T02:17:28;14.30;55.10
1367;DHT22;16877;48.810;9.282;2023-01-10T02:19:58;14.40;55.20
1367;DHT22;16877;48.810;9.282;2023-01-10T02:22:52;14.30;55.10
1367;DHT22;16877;48.810;9.282;2023-01-10T02:25:53;14.30;55.30
1367;DHT22;16877;48.810;9.282;2023-01-10T02:28:43;14.30;55.30
1367;DHT22;16877;48.810;9.282;2023-01-10T02:31:36;14.30;55.30
1367;DHT22;16877;48.810;9.282;2023-01-10T02:34:18;14.30;55.30
1367;DHT22;16877;48.810;9.282;2023-01-10T02:36:54;14.20;55.60
1367;DHT22;16877;48.810;9.282;2023-01-10T02:39:32;14.30;55.70
1367;DHT22;16877;48.810;9.282;2023-01-10T02:42:04;14.30;55.70
1367;DHT22;16877;48.810;9.282;2023-01-10T02:44:39;14.30;55.80
1367;DHT22;16877;48.810;9.282;2023-01-10T02:47:08;14.20;55.90
1367;DHT22;16877;48.810;9.282;2023-01-10T02:49:44;14.20;55.80
1367;DHT22;16877;48.810;9.282;2023-01-10T02:52:15;14.20;55.70
1367;DHT22;16877;48.810;9.282;2023-01-10T02:54:44;14.20;55.90
1367;DHT22;16877;48.810;9.282;2023-01-10T02:57:22;14.20;55.90
1367;DHT22;16877;48.810;9.282;2023-01-10T03:00:21;14.20;56.10
1367;DHT22;16877;48.810;9.282;2023-01-10T03:03:14;14.20;56.00
1367;DHT22;16877;48.810;9.282;2023-01-10T03:05:54;14.20;56.20
1367;DHT22;16877;48.810;9.282;2023-01-10T03:08:34;14.20;56.20
1367;DHT22;16877;48.810;9.282;2023-01-10T03:11:03;14.20;56.10
1367;DHT22;16877;48.810;9.282;2023-01-10T03:13:35;14.20;56.00
1367;DHT22;16877;48.810;9.282;2023-01-10T03:16:07;14.20;55.80
1367;DHT22;16877;48.810;9.282;2023-01-10T03:18:39;14.10;55.70
1367;DHT22;16877;48.810;9.282;2023-01-10T03:21:10;14.10;55.70
1367;DHT22;16877;48.810;9.282;2023-01-10T03:23:39;14.10;55.80
1367;DHT22;16877;48.810;9.282;2023-01-10T03:26:09;14.10;55.80
1367;DHT22;16877;48.810;9.282;2023-01-10T03:28:41;14.10;55.80
1367;DHT22;16877;48.810;9.282;2023-01-10T03:31:13;14.10;55.70
1367;DHT22;16877;48.810;9.282;2023-01-10T03:33:41;14.10;55.70
1367;DHT22;16877;48.810;9.282;2023-01-10T03:36:16;14.10;55.70
1367;DHT22;16877;48.810;9.282;2023-01-10T03:38:51;14.00;55.70
1367;DHT22;16877;48.810;9.282;2023-01-10T03:41:28;14.00;55.90
1367;DHT22;16877;48.810;9.282;2023-01-10T03:44:05;14.00;55.90
1367;DHT22;16877;48.810;9.282;2023-01-10T03:46:57;14.00;55.90
1367;DHT22;16877;48.810;9.282;2023-01-10T03:49:26;14.00;55.80
1367;DHT22;16877;48.810;9.282;2023-01-10T03:52:01;14.00;55.90
1367;DHT22;16877;48.810;9.282;2023-01-10T03:54:29;14.00;55.90
1367;DHT22;16877;48.810;9.282;2023-01-10T03:56:58;13.90;55.70
1367;DHT22;16877;48.810;9.282;2023-01-10T03:59:26;13.90;56.30
1367;DHT22;16877;48.810;9.282;2023-01-10T04:02:08;13.90;55.50
1367;DHT22;16877;48.810;9.282;2023-01-10T04:04:36;13.90;55.60
1367;DHT22;16877;48.810;9.282;2023-01-10T04:07:05;13.90;55.80
1367;DHT22;16877;48.810;9.282;2023-01-10T04:09:33;13.90;55.90
1367;DHT22;16877;48.810;9.282;2023-01-10T04:12:01;13.90;55.70
1367;DHT22;16877;48.810;9.282;2023-01-10T04:14:28;13.90;55.80
1367;DHT22;16877;48.810;9.282;2023-01-10T04:16:57;13.90;55.70
1367;DHT22;16877;48.810;9.282;2023-01-10T04:19:24;13.90;55.70
1367;DHT22;16877;48.810;9.282;2023-01-10T04:21:52;13.90;55.80
1367;DHT22;16877;48.810;9.282;2023-01-10T04:24:21;14.00;55.80
1367;DHT22;16877;48.810;9.282;2023-01-10T04:26:48;14.00;55.90
1367;DHT22;16877;48.810;9.282;2023-01-10T04:29:16;14.00;55.90
1367;DHT22;16877;48.810;9.282;2023-01-10T04:31:58;14.00;55.90
1367;DHT22;16877;48.810;9.282;2023-01-10T04:34:28;14.00;55.80
1367;DHT22;16877;48.810;9.282;2023-01-10T04:36:56;14.00;55.90
1367;DHT22;16877;48.810;9.282;2023-01-10T04:39:24;14.00;55.80
1367;DHT22;16877;48.810;9.282;2023-01-10T04:41:52;14.00;55.70
1367;DHT22;16877;48.810;9.282;2023-01-10T04:44:19;14.00;55.70
1367;DHT22;16877;48.810;9.282;2023-01-10T04:46:47;14.00;55.60
1367;DHT22;16877;48.810;9.282;2023-01-10T04:49:15;14.10;55.70
1367;DHT22;16877;48.810;9.282;2023-01-10T04:51:42;14.10;55.60
1367;DHT22;16877;48.810;9.282;2023-01-10T04:54:10;14.00;55.50
1367;DHT22;16877;48.810;9.282;2023-01-10T04:56:39;14.00;55.30
1367;DHT22;16877;48.810;9.282;2023-01-10T04:59:07;14.00;55.20
1367;DHT22;16877;48.810;9.282;2023-01-10T05:01:45;14.00;55.20
1367;DHT22;16877;48.810;9.282;2023-01-10T05:04:13;14.00;55.20
1367;DHT22;16877;48.810;9.282;2023-01-10T05:06:40;14.00;55.10
1367;DHT22;16877;48.810;9.282;2023-01-10T05:09:08;14.00;55.00
1367;DHT22;16877;48.810;9.282;2023-01-10T05:11:38;13.90;55.20
1367;DHT22;16877;48.810;9.282;2023-01-10T05:14:05;14.00;55.40
1367;DHT22;16877;48.810;9.282;2023-01-10T05:16:33;14.00;55.50
1367;DHT22;16877;48.810;9.282;2023-01-10T05:19:01;14.00;55.30
1367;DHT22;16877;48.810;9.282;2023-01-10T05:21:28;14.00;55.00
1367;DHT22;16877;48.810;9.282;2023-01-10T05:23:56;14.00;54.70
1367;DHT22;16877;48.810;9.282;2023-01-10T05:26:27;14.00;54.70
1367;DHT22;16877;48.810;9.282;2023-01-10T05:28:56;13.90;54.50
1367;DHT22;16877;48.810;9.282;2023-01-10T05:31:24;13.90;54.60
1367;DHT22;16877;48.810;9.282;2023-01-10T05:33:51;13.90;54.50
1367;DHT22;16877;48.810;9.282;2023-01-10T05:36:19;13.90;54.60
1367;DHT22;16877;48.810;9.282;2023-01-10T05:38:47;14.00;54.60
1367;DHT22;16877;48.810;9.282;2023-01-10T05:41:15;13.90;54.50
1367;DHT22;16877;48.810;9.282;2023-01-10T05:43:43;13.90;54.10
1367;DHT22;16877;48.810;9.282;2023-01-10T05:46:12;13.80;54.00
1367;DHT22;16877;48.810;9.282;2023-01-10T05:48:40;13.80;54.10
1367;DHT22;16877;48.810;9.282;2023-01-10T05:51:07;13.80;54.00
1367;DHT22;16877;48.810;9.282;2023-01-10T05:53:34;13.80;54.00
1367;DHT22;16877;48.810;9.282;2023-01-10T05:56:03;13.80;53.70
1367;DHT22;16877;48.810;9.282;2023-01-10T05:58:32;13.80;53.80
1367;DHT22;16877;48.810;9.282;2023-01-10T06:00:59;13.80;53.90
1367;DHT22;16877;48.810;9.282;2023-01-10T06:03:28;13.80;53.80
1367;DHT22;16877;48.810;9.282;2023-01-10T06:05:56;13.80;53.80
1367;DHT22;16877;48.810;9.282;2023-01-10T06:08:24;13.80;53.60
1367;DHT22;16877;48.810;9.282;2023-01-10T06:10:52;13.80;53.60
1367;DHT22;16877;48.810;9.282;2023-01-10T06:13:20;13.80;53.60
1367;DHT22;16877;48.810;9.282;2023-01-10T06:15:48;13.90;53.60
1367;DHT22;16877;48.810;9.282;2023-01-10T06:18:16;13.80;53.40
1367;DHT22;16877;48.810;9.282;2023-01-10T06:20:45;13.80;53.30
1367;DHT22;16877;48.810;9.282;2023-01-10T06:23:13;13.80;53.40
1367;DHT22;16877;48.810;9.282;2023-01-10T06:25:41;13.90;53.50
1367;DHT22;16877;48.810;9.282;2023-01-10T06:28:10;13.80;53.40
1367;DHT22;16877;48.810;9.282;2023-01-10T06:30:41;13.90;53.20
1367;DHT22;16877;48.810;9.282;2023-01-10T06:33:10;13.80;52.70
1367;DHT22;16877;48.810;9.282;2023-01-10T06:35:38;13.80;52.80
1367;DHT22;16877;48.810;9.282;2023-01-10T06:38:12;13.80;52.70
1367;DHT22;16877;48.810;9.282;2023-01-10T06:40:40;13.80;52.80
1367;DHT22;16877;48.810;9.282;2023-01-10T06:43:08;13.80;52.80
1367;DHT22;16877;48.810;9.282;2023-01-10T06:45:36;13.90;52.70
1367;DHT22;16877;48.810;9.282;2023-01-10T06:48:04;13.90;52.50
1367;DHT22;16877;48.810;9.282;2023-01-10T06:50:32;13.90;52.50
1367;DHT22;16877;48.810;9.282;2023-01-10T06:53:01;13.90;52.40
1367;DHT22;16877;48.810;9.282;2023-01-10T06:55:30;13.90;52.40
1367;DHT22;16877;48.810;9.282;2023-01-10T06:57:59;13.90;52.10
1367;DHT22;16877;48.810;9.282;2023-01-10T07:00:28;13.80;51.90
1367;DHT22;16877;48.810;9.282;2023-01-10T07:02:57;13.80;51.70
1367;DHT22;16877;48.810;9.282;2023-01-10T07:05:25;13.80;51.60
1367;DHT22;16877;48.810;9.282;2023-01-10T07:07:52;13.80;51.60
1367;DHT22;16877;48.810;9.282;2023-01-10T07:10:22;13.80;51.80
1367;DHT22;16877;48.810;9.282;2023-01-10T07:12:53;13.80;51.70
1367;DHT22;16877;48.810;9.282;2023-01-10T07:15:21;13.80;51.60
1367;DHT22;16877;48.810;9.282;2023-01-10T07:17:49;13.80;51.60
1367;DHT22;16877;48.810;9.282;2023-01-10T07:20:16;13.80;51.50
1367;DHT22;16877;48.810;9.282;2023-01-10T07:22:45;13.80;51.50
1367;DHT22;16877;48.810;9.282;2023-01-10T07:25:18;13.80;51.50
1367;DHT22;16877;48.810;9.282;2023-01-10T07:27:45;13.80;51.50
1367;DHT22;16877;48.810;9.282;2023-01-10T07:30:18;13.80;51.60
1367;DHT22;16877;48.810;9.282;2023-01-10T07:32:45;13.80;51.60
1367;DHT22;16877;48.810;9.282;2023-01-10T07:35:19;13.80;51.70
1367;DHT22;16877;48.810;9.282;2023-01-10T07:37:46;13.80;51.80
1367;DHT22;16877;48.810;9.282;2023-01-10T07:40:14;13.80;51.80
1367;DHT22;16877;48.810;9.282;2023-01-10T07:42:41;13.80;51.80
1367;DHT22;16877;48.810;9.282;2023-01-10T07:45:16;13.80;51.70
1367;DHT22;16877;48.810;9.282;2023-01-10T07:47:44;13.90;51.90
1367;DHT22;16877;48.810;9.282;2023-01-10T07:50:12;13.90;52.00
1367;DHT22;16877;48.810;9.282;2023-01-10T07:52:54;14.00;52.20
1367;DHT22;16877;48.810;9.282;2023-01-10T07:55:21;14.00;52.10
1367;DHT22;16877;48.810;9.282;2023-01-10T07:57:52;14.00;52.20
1367;DHT22;16877;48.810;9.282;2023-01-10T08:00:24;14.10;52.20
1367;DHT22;16877;48.810;9.282;2023-01-10T08:02:53;14.10;52.20
1367;DHT22;16877;48.810;9.282;2023-01-10T08:05:21;14.20;52.20
1367;DHT22;16877;48.810;9.282;2023-01-10T08:07:49;14.20;51.90
1367;DHT22;16877;48.810;9.282;2023-01-10T08:10:18;14.20;52.00
1367;DHT22;16877;48.810;9.282;2023-01-10T08:12:48;14.20;52.00
1367;DHT22;16877;48.810;9.282;2023-01-10T08:18:06;14.20;51.80
1367;DHT22;16877;48.810;9.282;2023-01-10T08:20:34;14.20;51.90
1367;DHT22;16877;48.810;9.282;2023-01-10T08:23:06;14.30;52.00
1367;DHT22;16877;48.810;9.282;2023-01-10T08:25:36;14.30;51.90
1367;DHT22;16877;48.810;9.282;2023-01-10T08:28:03;14.30;51.90
1367;DHT22;16877;48.810;9.282;2023-01-10T08:30:31;14.30;51.90
1367;DHT22;16877;48.810;9.282;2023-01-10T08:33:01;14.40;52.10
1367;DHT22;16877;48.810;9.282;2023-01-10T08:35:35;14.40;51.90
1367;DHT22;16877;48.810;9.282;2023-01-10T08:38:03;14.40;51.80
1367;DHT22;16877;48.810;9.282;2023-01-10T08:40:35;14.50;51.90
1367;DHT22;16877;48.810;9.282;2023-01-10T08:43:04;14.40;51.70
1367;DHT22;16877;48.810;9.282;2023-01-10T08:45:41;14.40;51.60
1367;DHT22;16877;48.810;9.282;2023-01-10T08:48:09;14.40;51.70
1367;DHT22;16877;48.810;9.282;2023-01-10T08:50:38;14.50;51.60
1367;DHT22;16877;48.810;9.282;2023-01-10T08:53:06;14.50;51.60
1367;DHT22;16877;48.810;9.282;2023-01-10T08:55:34;14.50;51.40
1367;DHT22;16877;48.810;9.282;2023-01-10T08:58:02;14.60;51.50
1367;DHT22;16877;48.810;9.282;2023-01-10T09:00:29;14.50;51.30
1367;DHT22;16877;48.810;9.282;2023-01-10T09:03:00;14.60;51.30
1367;DHT22;16877;48.810;9.282;2023-01-10T09:05:28;14.60;51.60
1367;DHT22;16877;48.810;9.282;2023-01-10T09:08:00;14.60;51.70
1367;DHT22;16877;48.810;9.282;2023-01-10T09:10:32;14.60;51.60
1367;DHT22;16877;48.810;9.282;2023-01-10T09:12:59;14.60;51.40
1367;DHT22;16877;48.810;9.282;2023-01-10T09:15:28;14.60;51.20
1367;DHT22;16877;48.810;9.282;2023-01-10T09:17:57;14.70;51.20
1367;DHT22;16877;48.810;9.282;2023-01-10T09:20:30;14.70;51.50
1367;DHT22;16877;48.810;9.282;2023-01-10T09:23:03;14.70;51.50
1367;DHT22;16877;48.810;9.282;2023-01-10T09:25:31;14.80;51.50
1367;DHT22;16877;48.810;9.282;2023-01-10T09:27:59;14.80;51.40
1367;DHT22;16877;48.810;9.282;2023-01-10T09:30:30;14.80;51.30
1367;DHT22;16877;48.810;9.282;2023-01-10T09:33:03;14.80;51.40
1367;DHT22;16877;48.810;9.282;2023-01-10T09:35:33;14.80;51.60
1367;DHT22;16877;48.810;9.282;2023-01-10T09:38:04;14.90;51.70
1367;DHT22;16877;48.810;9.282;2023-01-10T09:40:56;14.90;51.60
1367;DHT22;16877;48.810;9.282;2023-01-10T09:43:36;14.90;51.50
1367;DHT22;16877;48.810;9.282;2023-01-10T09:46:11;14.90;51.50
1367;DHT22;16877;48.810;9.282;2023-01-10T09:48:48;14.90;51.40
1367;DHT22;16877;48.810;9.282;2023-01-10T09:51:35;14.90;51.60
1367;DHT22;16877;48.810;9.282;2023-01-10T09:54:11;14.90;51.80
1367;DHT22;16877;48.810;9.282;2023-01-10T09:56:40;15.00;52.10
1367;DHT22;16877;48.810;9.282;2023-01-10T09:59:12;14.90;52.20
1367;DHT22;16877;48.810;9.282;2023-01-10T10:01:41;14.90;52.30
1367;DHT22;16877;48.810;9.282;2023-01-10T10:04:27;14.90;52.40
1367;DHT22;16877;48.810;9.282;2023-01-10T10:06:57;15.00;52.60
1367;DHT22;16877;48.810;9.282;2023-01-10T10:09:28;15.00;52.40
1367;DHT22;16877;48.810;9.282;2023-01-10T10:12:17;15.00;52.70
1367;DHT22;16877;48.810;9.282;2023-01-10T10:14:59;15.10;52.90
1367;DHT22;16877;48.810;9.282;2023-01-10T10:17:36;15.10;52.60
1367;DHT22;16877;48.810;9.282;2023-01-10T10:20:18;15.10;52.50
1367;DHT22;16877;48.810;9.282;2023-01-10T10:23:11;15.20;52.60
1367;DHT22;16877;48.810;9.282;2023-01-10T10:26:03;15.30;52.70
1367;DHT22;16877;48.810;9.282;2023-01-10T10:28:50;15.30;52.50
1367;DHT22;16877;48.810;9.282;2023-01-10T10:31:32;15.30;52.50
1367;DHT22;16877;48.810;9.282;2023-01-10T10:34:08;15.30;52.90
1367;DHT22;16877;48.810;9.282;2023-01-10T10:36:40;15.30;52.30
1367;DHT22;16877;48.810;9.282;2023-01-10T10:39:15;15.30;52.10
1367;DHT22;16877;48.810;9.282;2023-01-10T10:41:48;15.30;52.10
1367;DHT22;16877;48.810;9.282;2023-01-10T10:44:27;15.40;52.20
1367;DHT22;16877;48.810;9.282;2023-01-10T10:46:58;15.40;52.30
1367;DHT22;16877;48.810;9.282;2023-01-10T10:49:35;15.40;52.30
1367;DHT22;16877;48.810;9.282;2023-01-10T10:52:11;15.50;52.30
1367;DHT22;16877;48.810;9.282;2023-01-10T10:54:40;15.50;52.50
1367;DHT22;16877;48.810;9.282;2023-01-10T10:57:10;15.50;52.70
1367;DHT22;16877;48.810;9.282;2023-01-10T10:59:39;15.60;52.40
1367;DHT22;16877;48.810;9.282;2023-01-10T11:02:20;15.70;52.40
1367;DHT22;16877;48.810;9.282;2023-01-10T11:04:50;15.80;52.50
1367;DHT22;16877;48.810;9.282;2023-01-10T11:07:19;15.80;52.30
1367;DHT22;16877;48.810;9.282;2023-01-10T11:09:51;15.80;52.20
1367;DHT22;16877;48.810;9.282;2023-01-10T11:12:28;15.80;52.00
1367;DHT22;16877;48.810;9.282;2023-01-10T11:15:00;15.80;51.80
1367;DHT22;16877;48.810;9.282;2023-01-10T11:17:29;15.80;51.70
1367;DHT22;16877;48.810;9.282;2023-01-10T11:20:12;15.70;51.60
1367;DHT22;16877;48.810;9.282;2023-01-10T11:22:45;15.70;51.70
1367;DHT22;16877;48.810;9.282;2023-01-10T11:25:13;15.70;51.80
1367;DHT22;16877;48.810;9.282;2023-01-10T11:27:46;15.80;52.00
1367;DHT22;16877;48.810;9.282;2023-01-10T11:30:17;15.70;51.80
1367;DHT22;16877;48.810;9.282;2023-01-10T11:32:51;15.70;52.70
1367;DHT22;16877;48.810;9.282;2023-01-10T11:35:21;16.50;64.10
1367;DHT22;16877;48.810;9.282;2023-01-10T11:38:01;17.40;62.30
1367;DHT22;16877;48.810;9.282;2023-01-10T11:40:53;18.20;60.20
1367;DHT22;16877;48.810;9.282;2023-01-10T11:43:31;18.80;58.30
1367;DHT22;16877;48.810;9.282;2023-01-10T11:46:01;19.00;56.70
1367;DHT22;16877;48.810;9.282;2023-01-10T11:48:42;19.20;56.30
1367;DHT22;16877;48.810;9.282;2023-01-10T11:51:23;19.20;54.30
1367;DHT22;16877;48.810;9.282;2023-01-10T11:54:10;19.00;52.80
1367;DHT22;16877;48.810;9.282;2023-01-10T11:56:38;18.80;51.90
1367;DHT22;16877;48.810;9.282;2023-01-10T11:59:16;18.70;51.20
1367;DHT22;16877;48.810;9.282;2023-01-10T12:01:51;18.50;50.90
1367;DHT22;16877;48.810;9.282;2023-01-10T12:04:20;18.40;50.90
1367;DHT22;16877;48.810;9.282;2023-01-10T12:06:55;18.30;50.40
1367;DHT22;16877;48.810;9.282;2023-01-10T12:09:34;18.10;49.90
1367;DHT22;16877;48.810;9.282;2023-01-10T12:12:03;18.00;50.10
1367;DHT22;16877;48.810;9.282;2023-01-10T12:14:32;17.80;49.90
1367;DHT22;16877;48.810;9.282;2023-01-10T12:17:02;17.70;49.90
1367;DHT22;16877;48.810;9.282;2023-01-10T12:19:29;17.50;49.80
1367;DHT22;16877;48.810;9.282;2023-01-10T12:21:59;17.40;49.90
1367;DHT22;16877;48.810;9.282;2023-01-10T12:24:34;17.40;50.00
1367;DHT22;16877;48.810;9.282;2023-01-10T12:27:10;17.30;50.00
1367;DHT22;16877;48.810;9.282;2023-01-10T12:29:43;17.20;49.90
1367;DHT22;16877;48.810;9.282;2023-01-10T12:32:18;17.30;50.00
1367;DHT22;16877;48.810;9.282;2023-01-10T12:34:51;17.50;50.00
1367;DHT22;16877;48.810;9.282;2023-01-10T12:37:25;18.00;50.40
1367;DHT22;16877;48.810;9.282;2023-01-10T12:40:01;18.40;50.60
1367;DHT22;16877;48.810;9.282;2023-01-10T12:42:51;18.70;50.50
1367;DHT22;16877;48.810;9.282;2023-01-10T12:45:41;18.90;49.80
1367;DHT22;16877;48.810;9.282;2023-01-10T12:48:19;19.20;49.50
1367;DHT22;16877;48.810;9.282;2023-01-10T12:51:00;19.20;49.20
1367;DHT22;16877;48.810;9.282;2023-01-10T12:53:30;19.20;48.50
1367;DHT22;16877;48.810;9.282;2023-01-10T12:56:05;19.10;48.20
1367;DHT22;16877;48.810;9.282;2023-01-10T12:58:40;19.00;47.70
1367;DHT22;16877;48.810;9.282;2023-01-10T13:01:15;18.90;47.30
1367;DHT22;16877;48.810;9.282;2023-01-10T13:03:45;18.90;47.10
1367;DHT22;16877;48.810;9.282;2023-01-10T13:06:26;18.70;46.80
1367;DHT22;16877;48.810;9.282;2023-01-10T13:08:56;18.60;46.70
1367;DHT22;16877;48.810;9.282;2023-01-10T13:11:30;18.50;46.60
1367;DHT22;16877;48.810;9.282;2023-01-10T13:14:00;18.40;46.30
1367;DHT22;16877;48.810;9.282;2023-01-10T13:16:39;18.30;45.90
1367;DHT22;16877;48.810;9.282;2023-01-10T13:19:23;18.10;45.60
1367;DHT22;16877;48.810;9.282;2023-01-10T13:22:18;18.00;45.30
1367;DHT22;16877;48.810;9.282;2023-01-10T13:24:55;17.80;44.70
1367;DHT22;16877;48.810;9.282;2023-01-10T13:27:27;17.70;44.60
1367;DHT22;16877;48.810;9.282;2023-01-10T13:29:57;17.60;44.80
1367;DHT22;16877;48.810;9.282;2023-01-10T13:32:29;17.50;44.40
1367;DHT22;16877;48.810;9.282;2023-01-10T13:35:11;17.40;44.30
1367;DHT22;16877;48.810;9.282;2023-01-10T13:37:48;17.30;44.50
1367;DHT22;16877;48.810;9.282;2023-01-10T13:40:20;17.20;44.30
1367;DHT22;16877;48.810;9.282;2023-01-10T13:46:31;17.00;44.40
1367;DHT22;16877;48.810;9.282;2023-01-10T13:52:28;16.90;44.50
1367;DHT22;16877;48.810;9.282;2023-01-10T13:55:26;16.90;44.30
1367;DHT22;16877;48.810;9.282;2023-01-10T13:57:55;17.00;44.40
1367;DHT22;16877;48.810;9.282;2023-01-10T14:03:50;17.20;44.60
1367;DHT22;16877;48.810;9.282;2023-01-10T14:06:31;17.30;44.70
1367;DHT22;16877;48.810;9.282;2023-01-10T14:11:51;17.40;45.20
1367;DHT22;16877;48.810;9.282;2023-01-10T14:14:20;17.50;45.40
1367;DHT22;16877;48.810;9.282;2023-01-10T14:16:52;17.50;45.30
1367;DHT22;16877;48.810;9.282;2023-01-10T14:19:25;17.50;45.20
1367;DHT22;16877;48.810;9.282;2023-01-10T14:21:58;17.60;45.50
1367;DHT22;16877;48.810;9.282;2023-01-10T14:24:36;17.60;45.40
1367;DHT22;16877;48.810;9.282;2023-01-10T14:27:11;17.80;45.50
1367;DHT22;16877;48.810;9.282;2023-01-10T14:29:46;17.90;45.60
1367;DHT22;16877;48.810;9.282;2023-01-10T14:32:19;18.00;45.50
1367;DHT22;16877;48.810;9.282;2023-01-10T14:34:51;18.20;45.60
1367;DHT22;16877;48.810;9.282;2023-01-10T14:37:24;18.20;45.60
1367;DHT22;16877;48.810;9.282;2023-01-10T14:39:55;18.30;45.40
1367;DHT22;16877;48.810;9.282;2023-01-10T14:42:25;18.20;44.80
1367;DHT22;16877;48.810;9.282;2023-01-10T14:44:58;18.20;44.60
1367;DHT22;16877;48.810;9.282;2023-01-10T14:47:30;18.10;44.10
1367;DHT22;16877;48.810;9.282;2023-01-10T14:49:58;18.00;43.90
1367;DHT22;16877;48.810;9.282;2023-01-10T14:52:27;17.90;43.90
1367;DHT22;16877;48.810;9.282;2023-01-10T14:55:02;17.80;43.80
1367;DHT22;16877;48.810;9.282;2023-01-10T14:57:31;17.70;43.80
1367;DHT22;16877;48.810;9.282;2023-01-10T15:00:04;17.70;43.80
1367;DHT22;16877;48.810;9.282;2023-01-10T15:02:31;17.50;43.40
1367;DHT22;16877;48.810;9.282;2023-01-10T15:05:00;17.50;43.60
1367;DHT22;16877;48.810;9.282;2023-01-10T15:07:35;17.40;43.90
1367;DHT22;16877;48.810;9.282;2023-01-10T15:10:19;17.30;43.80
1367;DHT22;16877;48.810;9.282;2023-01-10T15:12:49;17.20;43.90
1367;DHT22;16877;48.810;9.282;2023-01-10T15:15:33;17.10;44.20
1367;DHT22;16877;48.810;9.282;2023-01-10T15:18:05;17.00;44.40
1367;DHT22;16877;48.810;9.282;2023-01-10T15:20:33;17.00;44.60
1367;DHT22;16877;48.810;9.282;2023-01-10T15:23:00;16.90;44.60
1367;DHT22;16877;48.810;9.282;2023-01-10T15:25:32;16.80;44.80
1367;DHT22;16877;48.810;9.282;2023-01-10T15:28:03;16.70;45.00
1367;DHT22;16877;48.810;9.282;2023-01-10T15:30:35;16.60;45.30
1367;DHT22;16877;48.810;9.282;2023-01-10T15:33:12;16.60;45.40
1367;DHT22;16877;48.810;9.282;2023-01-10T15:35:41;16.50;45.30
1367;DHT22;16877;48.810;9.282;2023-01-10T15:38:11;16.40;45.20
1367;DHT22;16877;48.810;9.282;2023-01-10T15:40:42;16.30;45.30
1367;DHT22;16877;48.810;9.282;2023-01-10T15:43:11;16.30;45.40
1367;DHT22;16877;48.810;9.282;2023-01-10T15:45:39;16.30;45.30
1367;DHT22;16877;48.810;9.282;2023-01-10T15:48:23;16.20;49.90
1367;DHT22;16877;48.810;9.282;2023-01-10T15:50:56;17.00;60.60
1367;DHT22;16877;48.810;9.282;2023-01-10T15:53:51;17.80;58.70
1367;DHT22;16877;48.810;9.282;2023-01-10T15:56:24;18.50;57.20
1367;DHT22;16877;48.810;9.282;2023-01-10T15:58:53;19.00;56.00
1367;DHT22;16877;48.810;9.282;2023-01-10T16:01:25;19.40;54.80
1367;DHT22;16877;48.810;9.282;2023-01-10T16:03:54;19.70;53.70
1367;DHT22;16877;48.810;9.282;2023-01-10T16:06:24;19.90;53.50
1367;DHT22;16877;48.810;9.282;2023-01-10T16:08:58;20.20;52.60
1367;DHT22;16877;48.810;9.282;2023-01-10T16:11:34;20.40;51.90
1367;DHT22;16877;48.810;9.282;2023-01-10T16:14:20;20.60;51.40
1367;DHT22;16877;48.810;9.282;2023-01-10T16:16:47;20.80;50.70
1367;DHT22;16877;48.810;9.282;2023-01-10T16:19:14;20.80;50.10
1367;DHT22;16877;48.810;9.282;2023-01-10T16:21:44;20.70;49.10
1367;DHT22;16877;48.810;9.282;2023-01-10T16:24:16;20.30;46.90
1367;DHT22;16877;48.810;9.282;2023-01-10T16:26:46;19.90;45.30
1367;DHT22;16877;48.810;9.282;2023-01-10T16:29:16;19.40;44.50
1367;DHT22;16877;48.810;9.282;2023-01-10T16:31:45;19.10;44.50
1367;DHT22;16877;48.810;9.282;2023-01-10T16:34:13;18.70;43.80